Latest Weather Observations for Ballera

IDQ60801

Issued at 12:02 am EST Saturday 21 January 2017 (issued every 30 minutes, with the page automatically refreshed every 10 minutes)

About weather observations | Map of weather stations | Latest weather observations for QLD | Other Formats
Station Details ID: 045009 Name: BALLERA GAS FIELD Lat: -27.40 Lon: 141.81 Height: 114.5 m
Data from the previous 72 hours. | See also: Recent months at Ballera
Date/Time
EST
Temp
°C
App
Temp
°C
Dew
Point
°C
Rel
Hum
%
Delta-T
°C
Wind Press
QNH
hPa
Press
MSL
hPa
Rain since
9am
mm
Dir  Spd
km/h
Gust
km/h
Spd
kts
Gust
kts
20/11:57pm 26.3 26.7 22.4 79 2.6 WSW 24 50 13 27 1007.3 1006.4 1.0
20/11:30pm 26.4 30.9 24.6 90 1.3 WSW 9 11 5 6 1006.7 1005.8 1.0
20/11:00pm 26.7 28.1 22.5 78 2.9 WNW 19 26 10 14 1006.8 1005.9 1.0
20/10:30pm 26.6 26.2 23.1 81 2.4 WSW 30 37 16 20 1007.2 1006.3 0.4
20/10:00pm 26.2 23.3 21.6 76 3.1 W 39 54 21 29 1007.1 1006.2 0.4
20/09:38pm 29.0 29.9 21.5 64 5.0 WSW 19 54 10 29 1006.9 1006.0 0.4
20/09:30pm 28.9 32.4 21.9 66 4.7 N 6 11 3 6 1005.3 1004.4 0.4
20/09:00pm 28.1 30.6 21.1 65 4.7 N 9 11 5 6 1004.7 1003.8 0.4
20/08:30pm 27.7 29.1 21.0 67 4.5 N 15 19 8 10 1004.5 1003.6 0.4
20/08:00pm 27.1 26.9 21.2 70 3.9 N 24 28 13 15 1004.2 1003.3 0.4
20/07:35pm 26.3 25.2 22.4 79 2.6 N 32 50 17 27 1004.5 1003.6 0.4
20/07:30pm 25.8 23.6 22.1 80 2.5 N 37 50 20 27 1004.5 1003.6 0.4
20/07:10pm 26.6 24.8 22.9 80 2.5 N 37 56 20 30 1004.5 1003.6 0.4
20/07:00pm 28.8 26.9 22.1 67 4.6 NNW 35 52 19 28 1004.4 1003.5 0.4
20/06:57pm 29.1 28.3 22.3 66 4.6 NNW 30 48 16 26 1004.3 1003.4 0.4
20/06:30pm 28.8 28.9 22.5 68 4.3 N 26 39 14 21 1003.3 1002.3 0.4
20/06:00pm 28.2 24.3 21.2 65 4.7 N 43 56 23 30 1003.0 1002.0 0.4
20/05:50pm 30.4 27.3 22.0 60 5.7 N 41 67 22 36 1002.9 1001.9 0.4
20/05:43pm 33.5 32.0 20.3 46 8.8 NE 28 67 15 36 1002.4 1001.5 0.4
20/05:30pm 34.0 32.8 20.0 43 9.3 ENE 26 32 14 17 1001.7 1000.8 0.4
20/05:00pm 36.2 37.3 21.2 41 10.3 SE 17 24 9 13 1001.2 1000.3 0.4
20/04:30pm 35.3 37.9 22.6 47 8.8 SSW 13 17 7 9 1001.3 1000.4 0.4
20/04:00pm 32.8 32.4 21.0 50 8.0 SSW 24 35 13 19 1001.8 1000.9 0.4
20/03:30pm 31.2 29.7 20.2 52 7.3 SSW 28 43 15 23 1001.7 1000.8 0.4
20/03:00pm 32.8 30.7 21.0 50 8.0 SW 33 48 18 26 1002.2 1001.3 0.4
20/02:53pm 32.6 29.9 22.7 56 6.8 WSW 41 70 22 38 1002.2 1001.3 0.4
20/02:45pm 33.9 31.1 20.3 45 9.1 W 35 70 19 38 1001.9 1001.0 0.0
20/02:43pm 37.7 35.8 20.1 36 11.9 W 30 52 16 28 1001.4 1000.5 0.0
20/02:30pm 40.3 38.3 18.3 28 14.6 W 26 39 14 21 1001.5 1000.6 0.0
20/02:00pm 40.2 36.1 18.2 27 14.6 W 37 50 20 27 1001.8 1000.9 0.0
20/01:43pm 40.8 37.8 18.7 27 14.8 WSW 32 50 17 27 1001.8 1000.9 0.0
20/01:30pm 40.9 38.4 18.8 27 14.8 W 30 46 16 25 1001.9 1001.0 0.0
20/01:14pm 40.3 37.2 18.3 28 14.6 W 32 50 17 27 1002.1 1001.2 0.0
20/01:00pm 39.7 36.0 18.3 28 14.2 WSW 35 52 19 28 1002.4 1001.5 0.0
20/12:30pm 40.3 37.0 18.3 28 14.6 W 33 48 18 26 1002.8 1001.8 0.0
20/12:00pm 38.8 35.2 18.6 30 13.5 W 35 44 19 24 1003.5 1002.5 0.0
20/11:30am 37.7 34.7 18.7 33 12.6 W 32 41 17 22 1003.9 1003.0 0.0
20/11:00am 38.3 36.3 19.2 32 12.8 W 28 44 15 24 1003.9 1003.0 0.0
20/10:30am 37.4 35.3 18.9 34 12.3 W 28 35 15 19 1004.0 1003.1 0.0
20/10:00am 38.1 35.9 19.5 33 12.5 W 30 39 16 21 1003.7 1002.8 0.0
20/09:30am 36.4 34.1 19.4 37 11.3 WNW 30 44 16 24 1003.6 1002.6 0.0
20/09:00am 34.6 33.7 19.8 41 9.9 WNW 24 32 13 17 1003.9 1003.0 7.2
20/08:30am 33.4 32.7 20.2 46 8.8 NW 24 32 13 17 1004.0 1003.1 7.2
20/08:00am 33.4 31.8 19.1 42 9.4 NNW 26 33 14 18 1003.7 1002.8 7.2
20/07:30am 32.5 32.5 20.1 48 8.3 NNW 20 28 11 15 1003.5 1002.5 7.2
20/07:00am 30.6 30.4 20.5 54 6.7 N 22 30 12 16 1003.1 1002.1 7.2
20/06:30am 29.6 29.9 20.7 58 5.9 N 20 28 11 15 1002.7 1001.7 7.2
20/06:00am 29.1 29.2 21.1 62 5.4 N 22 28 12 15 1002.2 1001.3 7.2
20/05:30am 29.4 29.1 21.1 61 5.6 N 24 32 13 17 1001.9 1001.0 7.2
20/05:00am 29.4 29.0 21.6 63 5.3 N 26 32 14 17 1001.6 1000.7 7.2
20/04:30am 29.8 29.4 21.7 61 5.5 N 26 33 14 18 1001.4 1000.5 7.2
20/04:00am 29.9 30.0 21.8 62 5.5 N 24 32 13 17 1001.5 1000.6 7.2
20/03:30am 29.8 29.4 21.7 61 5.5 NNE 26 30 14 16 1001.3 1000.4 7.2
20/03:00am 29.5 29.7 22.0 64 5.1 NNE 24 32 13 17 1001.4 1000.5 7.2
20/02:30am 29.6 30.0 21.8 63 5.3 NNE 22 26 12 14 1001.8 1000.9 7.2
20/02:00am 29.8 29.8 21.7 61 5.5 NNE 24 32 13 17 1001.9 1001.0 7.2
20/01:30am 29.8 30.9 22.3 64 5.1 NNE 20 24 11 13 1002.4 1001.5 7.2
20/01:00am 29.5 30.3 22.5 66 4.8 NNE 22 26 12 14 1002.9 1001.9 7.2
20/12:30am 29.4 31.0 22.1 65 5.0 NE 17 22 9 12 1003.1 1002.1 7.2
20/12:00am 29.7 30.4 22.2 64 5.1 NNE 22 30 12 16 1003.3 1002.3 7.2
 
Date/Time
EST
Temp
°C
App
Temp
°C
Dew
Point
°C
Rel
Hum
%
Delta-T
°C
Wind Press
QNH
hPa
Press
MSL
hPa
Rain since
9am
mm
Dir  Spd
km/h
Gust
km/h
Spd
kts
Gust
kts
19/11:30pm 29.6 31.5 22.8 67 4.7 N 17 20 9 11 1003.8 1002.9 7.2
19/11:00pm 29.6 31.8 22.6 66 4.8 NE 15 19 8 10 1003.7 1002.8 7.2
19/10:30pm 29.0 31.4 23.0 70 4.1 NE 15 17 8 9 1003.7 1002.8 7.2
19/10:00pm 29.3 31.4 22.5 67 4.7 NE 15 17 8 9 1003.7 1002.8 7.2
19/09:30pm 29.9 32.2 22.1 63 5.3 NNE 13 17 7 9 1003.7 1002.8 7.2
19/09:00pm 30.0 32.0 22.9 65 4.9 NE 17 22 9 12 1003.5 1002.5 7.2
19/08:30pm 30.1 31.9 22.5 63 5.2 NE 17 20 9 11 1003.4 1002.4 7.2
19/08:00pm 30.1 32.5 23.0 65 4.9 ENE 15 19 8 10 1003.2 1002.2 7.2
19/07:30pm 30.8 33.3 23.2 64 5.2 NE 15 19 8 10 1003.5 1002.5 7.2
19/07:00pm 30.6 32.4 23.5 66 4.9 NE 20 24 11 13 1003.7 1002.8 7.2
19/06:30pm 29.5 30.8 24.1 72 3.8 ENE 24 30 13 16 1003.9 1003.0 7.2
19/06:00pm 28.7 29.2 24.0 76 3.3 ENE 28 35 15 19 1003.7 1002.8 7.0
19/05:30pm 27.9 30.4 25.3 86 1.8 E 22 30 12 16 1003.9 1003.0 6.8
19/05:00pm 28.0 29.5 25.0 84 2.1 SSE 26 33 14 18 1004.0 1003.1 6.8
19/04:54pm 28.6 30.0 24.8 80 2.7 S 26 33 14 18 1003.8 1002.9 6.8
19/04:41pm 28.9 29.5 25.3 81 2.5 SSW 32 50 17 27 1004.1 1003.2 6.6
19/04:31pm 27.1 26.4 24.2 84 2.0 SSE 35 48 19 26 1004.2 1003.3 3.4
19/04:30pm 27.9 27.6 24.9 84 2.1 SE 35 48 19 26 1004.5 1003.6 2.8
19/04:25pm 30.6 29.4 23.3 65 5.0 SE 35 48 19 26 1004.6 1003.7 0.2
19/04:00pm 35.7 32.7 18.7 36 11.2 ENE 32 56 17 30 1003.6 1002.6 0.0
19/03:59pm 35.9 33.6 18.5 36 11.4 ENE 28 52 15 28 1003.6 1002.6 0.0
19/03:57pm 38.0 36.8 18.4 31 13.0 NNE 22 43 12 23 1003.5 1002.5 0.0
19/03:30pm 40.5 39.5 16.6 24 15.5 WNW 17 26 9 14 1003.0 1002.0 0.0
19/03:02pm 37.6 37.9 19.5 34 12.1 WNW 17 44 9 24 1003.4 1002.4 0.0
19/03:00pm 40.1 40.8 19.7 30 13.8 W 15 22 8 12 1003.7 1002.8 0.0
19/02:30pm 40.1 39.1 17.5 26 14.8 NW 19 28 10 15 1004.2 1003.3 0.0
19/02:00pm 39.9 39.0 16.8 26 15.1 NW 17 33 9 18 1004.6 1003.7 0.0
19/01:30pm 40.1 38.5 17.5 26 14.8 W 22 35 12 19 1005.3 1004.4 0.0
19/01:00pm 40.3 40.3 17.1 25 15.2 NNW 13 20 7 11 1006.1 1005.2 0.0
19/12:30pm 39.8 40.2 18.9 29 14.0 WNW 15 30 8 16 1006.7 1005.8 0.0
19/12:00pm 39.3 38.4 19.0 30 13.6 NNW 22 32 12 17 1007.2 1006.3 0.0
19/11:30am 38.2 37.9 19.6 34 12.5 NW 20 32 11 17 1007.6 1006.7 0.0
19/11:00am 35.8 36.1 21.6 43 9.7 NNW 22 30 12 16 1007.9 1007.0 0.0
19/10:30am 34.9 34.5 21.6 46 9.1 N 26 33 14 18 1008.2 1007.3 0.0
19/10:00am 33.6 33.1 22.1 51 7.9 N 28 35 15 19 1008.4 1007.5 0.0
19/09:30am 32.0 32.9 23.3 60 6.0 N 24 28 13 15 1008.5 1007.6 0.0
19/09:00am 30.7 32.5 22.6 62 5.6 N 17 20 9 11 1008.7 1007.8 15.8
19/08:30am 29.7 31.0 22.7 66 4.8 N 20 26 11 14 1008.5 1007.6 15.8
19/08:00am 29.1 31.0 22.8 69 4.3 N 17 20 9 11 1008.4 1007.5 15.8
19/07:30am 28.6 30.3 22.3 68 4.3 N 17 20 9 11 1008.3 1007.4 15.8
19/07:00am 28.3 30.1 21.8 68 4.4 N 15 19 8 10 1008.4 1007.5 15.8
19/06:30am 27.5 29.6 22.4 73 3.5 N 15 19 8 10 1008.2 1007.3 15.8
19/06:00am 27.5 29.2 22.4 73 3.5 NNE 17 19 9 10 1008.3 1007.4 15.8
19/05:30am 26.6 28.1 22.7 79 2.6 NE 19 24 10 13 1008.3 1007.4 15.8
19/05:00am 26.8 27.3 22.6 78 2.9 NE 24 32 13 17 1008.3 1007.4 15.8
19/04:30am 26.1 26.1 23.0 83 2.1 NE 28 32 15 17 1008.3 1007.4 15.8
19/04:00am 26.3 27.5 23.2 83 2.1 ENE 22 28 12 15 1008.6 1007.7 15.8
19/03:30am 26.2 27.3 23.1 83 2.1 NE 22 26 12 14 1008.8 1007.9 15.8
19/03:00am 26.0 26.1 23.3 85 1.8 NE 28 33 15 18 1008.9 1008.0 15.8
19/02:30am 26.3 27.1 23.8 86 1.7 E 26 32 14 17 1009.3 1008.4 15.8
19/02:00am 26.5 26.8 23.6 84 2.0 ENE 28 37 15 20 1009.6 1008.7 15.8
19/01:30am 26.9 26.6 23.2 80 2.5 E 30 41 16 22 1009.7 1008.8 15.8
19/01:00am 27.3 27.2 23.5 80 2.6 E 30 39 16 21 1009.9 1009.0 15.8
19/12:30am 27.9 26.3 23.3 76 3.2 E 37 50 20 27 1009.9 1009.0 15.8
19/12:00am 28.4 26.1 23.3 74 3.5 E 41 56 22 30 1009.7 1008.8 15.8
 
Date/Time
EST
Temp
°C
App
Temp
°C
Dew
Point
°C
Rel
Hum
%
Delta-T
°C
Wind Press
QNH
hPa
Press
MSL
hPa
Rain since
9am
mm
Dir  Spd
km/h
Gust
km/h
Spd
kts
Gust
kts
18/11:50pm 28.9 27.9 23.6 73 3.7 ESE 35 56 19 30 1009.5 1008.6 15.8
18/11:49pm 29.0 28.0 23.7 73 3.7 ESE 35 50 19 27 1009.5 1008.6 15.8
18/11:30pm 29.5 29.1 21.7 63 5.3 ENE 26 32 14 17 1009.0 1008.1 15.8
18/11:00pm 29.3 28.5 22.3 66 4.8 ENE 30 37 16 20 1008.7 1007.8 15.8
18/10:30pm 28.4 28.9 24.0 77 3.1 NE 28 33 15 18 1008.6 1007.7 15.8
18/10:00pm 27.9 31.1 24.3 81 2.5 SSE 15 17 8 9 1008.8 1007.9 15.8
18/09:30pm 27.7 30.1 23.7 79 2.8 S 17 22 9 12 1009.0 1008.1 15.8
18/09:00pm 28.0 27.7 23.8 78 2.9 SSE 32 44 17 24 1008.8 1007.9 15.6
18/08:30pm 29.1 31.3 24.0 74 3.5 NE 19 28 10 15 1008.8 1007.9 14.6
18/08:00pm 28.3 29.4 23.7 76 3.2 NE 24 35 13 19 1008.7 1007.8 11.4
18/07:59pm 28.4 29.2 23.8 76 3.2 NNE 26 35 14 19 1008.7 1007.8 11.4
18/07:30pm 28.6 26.9 23.1 72 3.8 NNE 37 46 20 25 1007.3 1006.4 11.2
18/07:19pm 28.9 28.1 23.3 72 3.9 NE 33 48 18 26 1007.7 1006.8 11.2
18/07:13pm 29.4 28.9 22.1 65 5.0 ENE 28 48 15 26 1007.5 1006.6 11.0
18/07:00pm 29.6 27.4 21.5 61 5.5 NE 35 57 19 31 1008.1 1007.2 9.0
18/06:55pm 31.0 26.7 21.5 57 6.4 NNE 46 70 25 38 1007.0 1006.1 9.0
18/06:52pm 31.5 26.1 22.2 57 6.4 NNE 54 80 29 43 1007.0 1006.1 9.0
18/06:48pm 28.3 22.4 21.3 65 4.7 NNE 54 80 29 43 1007.0 1006.1 9.0
18/06:43pm 30.2 28.0 22.1 62 5.5 NNE 37 78 20 42 1006.3 1005.4 8.8
18/06:39pm 30.4 30.1 22.6 63 5.3 ENE 28 54 15 29 1007.1 1006.2 8.8
18/06:30pm 31.9 32.2 22.9 59 6.2 S 26 44 14 24 1007.2 1006.3 7.8
18/06:20pm 32.3 30.8 22.7 57 6.6 SW 35 56 19 30 1006.5 1005.6 3.4
18/06:18pm 32.7 30.0 21.9 53 7.4 WSW 39 61 21 33 1006.5 1005.6 3.0
18/06:11pm 31.2 26.1 21.4 56 6.6 WSW 50 102 27 55 1006.7 1005.8 2.4
18/06:07pm 28.8 25.3 20.5 61 5.5 SW 39 102 21 55 1007.5 1006.6 1.6
18/06:06pm 31.1 28.9 20.7 54 7.0 SW 33 74 18 40 1007.3 1006.4 0.8
18/06:03pm 34.3 33.2 19.5 41 9.8 SSW 24 59 13 32 1006.3 1005.4 0.0
18/06:00pm 37.0 35.5 18.5 33 12.2 S 24 44 13 24 1006.2 1005.3 0.0
18/05:34pm 39.1 36.8 16.7 27 14.5 SSW 24 48 13 26 1005.5 1004.6 0.0
18/05:32pm 38.5 36.4 16.2 27 14.3 WSW 22 46 12 25 1005.3 1004.4 0.0
18/05:30pm 38.7 37.4 16.9 27 14.2 WNW 19 28 10 15 1005.5 1004.6 0.0
18/05:00pm 41.2 39.7 15.2 21 16.7 NW 17 28 9 15 1005.6 1004.7 0.0
18/04:30pm 40.7 38.1 14.8 22 16.5 NNW 22 33 12 18 1005.6 1004.7 0.0
18/04:00pm 42.5 40.5 15.6 21 17.4 NNW 20 30 11 16 1005.9 1005.0 0.0
18/03:30pm 41.6 39.6 15.5 21 16.8 NW 20 32 11 17 1006.5 1005.6 0.0
18/03:00pm 41.4 39.8 16.1 23 16.4 NW 19 32 10 17 1006.9 1006.0 0.0
18/02:30pm 41.0 39.4 16.4 23 16.0 NW 20 30 11 16 1007.7 1006.8 0.0
18/02:00pm 41.7 41.5 17.6 24 15.9 N 15 24 8 13 1008.3 1007.4 0.0
18/01:30pm 41.1 38.6 17.1 24 15.7 NNW 26 46 14 25 1008.7 1007.8 0.0
18/01:00pm 41.8 40.7 17.7 24 16.0 NW 20 43 11 23 1009.1 1008.2 0.0
18/12:30pm 40.9 39.4 17.6 25 15.4 N 22 35 12 19 1009.7 1008.8 0.0
18/12:00pm 40.6 40.7 19.1 28 14.4 NW 17 28 9 15 1010.0 1009.1 0.0
18/11:30am 38.8 37.6 17.5 28 13.9 NW 20 30 11 16 1010.4 1009.5 0.0
18/11:00am 38.8 38.1 18.6 30 13.4 NNW 20 32 11 17 1010.7 1009.8 0.0
18/10:30am 37.7 37.2 19.1 33 12.4 NNW 20 35 11 19 1010.9 1010.0 0.0
18/10:00am 37.2 35.5 18.2 32 12.5 NNW 24 35 13 19 1011.1 1010.2 0.0
18/09:30am 36.8 35.2 19.3 36 11.7 NW 26 41 14 22 1011.3 1010.4 0.0
18/09:00am 36.5 34.6 19.4 36 11.4 NNW 28 35 15 19 1011.4 1010.5 0.0
18/08:30am 35.8 33.9 19.3 38 11.0 NW 28 35 15 19 1011.5 1010.7 0.0
18/08:00am 35.1 33.8 19.9 41 10.2 NNW 26 33 14 18 1011.3 1010.4 0.0
18/07:30am 33.9 34.3 20.6 45 8.9 N 19 24 10 13 1011.3 1010.4 0.0
18/07:00am 32.4 33.2 20.6 49 7.9 N 17 24 9 13 1011.1 1010.2 0.0
18/06:30am 31.2 32.3 20.5 53 7.1 N 15 20 8 11 1010.7 1009.8 0.0
18/06:00am 30.9 32.0 20.5 54 6.9 N 15 19 8 10 1010.3 1009.4 0.0
18/05:30am 31.2 32.3 20.5 53 7.1 N 15 19 8 10 1009.8 1008.9 0.0
18/05:00am 31.3 32.1 20.6 53 7.2 N 17 20 9 11 1009.4 1008.5 0.0
18/04:30am 31.8 32.3 20.1 50 7.8 N 17 19 9 10 1009.1 1008.2 0.0
18/04:00am 32.2 32.5 19.5 47 8.4 N 17 19 9 10 1008.8 1007.9 0.0
18/03:30am 32.6 33.0 19.8 46 8.5 N 17 20 9 11 1008.7 1007.8 0.0
18/03:00am 32.8 33.1 19.7 46 8.7 N 17 20 9 11 1008.6 1007.7 0.0
18/02:30am 33.4 33.7 19.5 44 9.2 NNW 17 24 9 13 1008.7 1007.8 0.0
18/02:00am 33.5 33.6 19.9 44 9.1 NNW 19 24 10 13 1008.7 1007.8 0.0
18/01:30am 33.5 33.0 19.9 44 9.1 N 22 28 12 15 1008.7 1007.8 0.0
18/01:00am 33.8 33.4 20.2 44 9.1 N 22 28 12 15 1008.7 1007.8 0.0
18/12:30am 33.9 34.2 20.3 45 9.1 N 19 26 10 14 1008.9 1008.0 0.0

Other Formats:

Comma delimited format used in spreadsheet applications
http://www.bom.gov.au/fwo/IDQ60801/IDQ60801.95487.axf

JavaScript Object Notation format (JSON) in row-major order
http://www.bom.gov.au/fwo/IDQ60801/IDQ60801.95487.json